sensor_id;sensor_type;location;lat;lon;timestamp;P1;durP1;ratioP1;P2;durP2;ratioP2
7213;SDS011;3648;50.614;13.830;2022-10-28T00:00:05;36.97;;;23.13;;
7213;SDS011;3648;50.614;13.830;2022-10-28T00:02:34;35.20;;;24.93;;
7213;SDS011;3648;50.614;13.830;2022-10-28T00:05:02;39.43;;;24.80;;
7213;SDS011;3648;50.614;13.830;2022-10-28T00:07:29;42.60;;;22.30;;
7213;SDS011;3648;50.614;13.830;2022-10-28T00:09:56;37.67;;;22.73;;
7213;SDS011;3648;50.614;13.830;2022-10-28T00:12:23;38.57;;;23.43;;
7213;SDS011;3648;50.614;13.830;2022-10-28T00:14:50;36.13;;;20.70;;
7213;SDS011;3648;50.614;13.830;2022-10-28T00:17:17;37.57;;;22.87;;
7213;SDS011;3648;50.614;13.830;2022-10-28T00:19:45;31.80;;;21.30;;
7213;SDS011;3648;50.614;13.830;2022-10-28T00:22:12;33.17;;;22.27;;
7213;SDS011;3648;50.614;13.830;2022-10-28T00:24:39;31.97;;;20.50;;
7213;SDS011;3648;50.614;13.830;2022-10-28T00:27:06;28.60;;;20.70;;
7213;SDS011;3648;50.614;13.830;2022-10-28T00:29:32;35.03;;;21.13;;
7213;SDS011;3648;50.614;13.830;2022-10-28T00:31:59;32.13;;;19.67;;
7213;SDS011;3648;50.614;13.830;2022-10-28T00:34:26;34.73;;;19.23;;
7213;SDS011;3648;50.614;13.830;2022-10-28T00:36:54;33.63;;;20.33;;
7213;SDS011;3648;50.614;13.830;2022-10-28T00:39:22;27.03;;;19.37;;
7213;SDS011;3648;50.614;13.830;2022-10-28T00:41:51;30.20;;;20.60;;
7213;SDS011;3648;50.614;13.830;2022-10-28T00:47:10;48.67;;;20.40;;
7213;SDS011;3648;50.614;13.830;2022-10-28T00:49:40;27.03;;;19.70;;
7213;SDS011;3648;50.614;13.830;2022-10-28T00:52:10;30.50;;;21.17;;
7213;SDS011;3648;50.614;13.830;2022-10-28T00:54:41;25.07;;;18.77;;
7213;SDS011;3648;50.614;13.830;2022-10-28T00:57:10;30.90;;;20.90;;
7213;SDS011;3648;50.614;13.830;2022-10-28T00:59:41;28.27;;;18.93;;
7213;SDS011;3648;50.614;13.830;2022-10-28T01:02:11;29.77;;;20.97;;
7213;SDS011;3648;50.614;13.830;2022-10-28T01:04:38;23.07;;;17.93;;
7213;SDS011;3648;50.614;13.830;2022-10-28T01:07:05;25.07;;;19.20;;
7213;SDS011;3648;50.614;13.830;2022-10-28T01:09:34;33.43;;;22.63;;
7213;SDS011;3648;50.614;13.830;2022-10-28T01:12:02;35.90;;;21.13;;
7213;SDS011;3648;50.614;13.830;2022-10-28T01:14:46;28.50;;;19.97;;
7213;SDS011;3648;50.614;13.830;2022-10-28T01:17:30;32.13;;;19.10;;
7213;SDS011;3648;50.614;13.830;2022-10-28T01:20:15;44.03;;;20.00;;
7213;SDS011;3648;50.614;13.830;2022-10-28T01:23:02;34.50;;;20.37;;
7213;SDS011;3648;50.614;13.830;2022-10-28T01:25:47;29.70;;;19.77;;
7213;SDS011;3648;50.614;13.830;2022-10-28T01:28:41;33.77;;;20.20;;
7213;SDS011;3648;50.614;13.830;2022-10-28T01:31:33;25.00;;;18.90;;
7213;SDS011;3648;50.614;13.830;2022-10-28T01:34:06;24.77;;;19.60;;
7213;SDS011;3648;50.614;13.830;2022-10-28T01:36:38;25.33;;;18.63;;
7213;SDS011;3648;50.614;13.830;2022-10-28T01:39:15;28.60;;;20.93;;
7213;SDS011;3648;50.614;13.830;2022-10-28T01:41:50;27.13;;;18.93;;
7213;SDS011;3648;50.614;13.830;2022-10-28T01:44:23;25.53;;;19.67;;
7213;SDS011;3648;50.614;13.830;2022-10-28T01:46:58;27.60;;;19.03;;
7213;SDS011;3648;50.614;13.830;2022-10-28T01:49:30;28.07;;;19.70;;
7213;SDS011;3648;50.614;13.830;2022-10-28T01:52:04;35.47;;;22.73;;
7213;SDS011;3648;50.614;13.830;2022-10-28T01:54:34;33.23;;;22.43;;
7213;SDS011;3648;50.614;13.830;2022-10-28T01:57:03;34.13;;;23.00;;
7213;SDS011;3648;50.614;13.830;2022-10-28T01:59:31;37.50;;;24.13;;
7213;SDS011;3648;50.614;13.830;2022-10-28T02:02:01;52.37;;;24.50;;
7213;SDS011;3648;50.614;13.830;2022-10-28T02:04:28;41.27;;;23.90;;
7213;SDS011;3648;50.614;13.830;2022-10-28T02:06:56;39.37;;;24.13;;
7213;SDS011;3648;50.614;13.830;2022-10-28T02:09:28;36.80;;;25.50;;
7213;SDS011;3648;50.614;13.830;2022-10-28T02:15:00;41.33;;;27.40;;
7213;SDS011;3648;50.614;13.830;2022-10-28T02:20:39;33.23;;;19.33;;
7213;SDS011;3648;50.614;13.830;2022-10-28T02:23:16;31.93;;;17.37;;
7213;SDS011;3648;50.614;13.830;2022-10-28T02:25:51;25.97;;;16.97;;
7213;SDS011;3648;50.614;13.830;2022-10-28T02:28:23;23.80;;;16.77;;
7213;SDS011;3648;50.614;13.830;2022-10-28T02:30:58;25.17;;;15.90;;
7213;SDS011;3648;50.614;13.830;2022-10-28T02:33:30;34.67;;;17.10;;
7213;SDS011;3648;50.614;13.830;2022-10-28T02:36:02;23.27;;;16.93;;
7213;SDS011;3648;50.614;13.830;2022-10-28T02:38:33;43.83;;;21.73;;
7213;SDS011;3648;50.614;13.830;2022-10-28T02:41:05;34.60;;;23.37;;
7213;SDS011;3648;50.614;13.830;2022-10-28T02:43:35;34.70;;;22.10;;
7213;SDS011;3648;50.614;13.830;2022-10-28T02:46:04;38.37;;;23.00;;
7213;SDS011;3648;50.614;13.830;2022-10-28T02:48:35;31.13;;;19.90;;
7213;SDS011;3648;50.614;13.830;2022-10-28T02:51:06;41.57;;;24.67;;
7213;SDS011;3648;50.614;13.830;2022-10-28T02:53:38;37.37;;;23.20;;
7213;SDS011;3648;50.614;13.830;2022-10-28T02:56:10;35.53;;;22.87;;
7213;SDS011;3648;50.614;13.830;2022-10-28T02:58:40;37.57;;;23.00;;
7213;SDS011;3648;50.614;13.830;2022-10-28T03:01:08;31.83;;;21.37;;
7213;SDS011;3648;50.614;13.830;2022-10-28T03:03:36;36.03;;;19.10;;
7213;SDS011;3648;50.614;13.830;2022-10-28T03:06:03;32.27;;;16.97;;
7213;SDS011;3648;50.614;13.830;2022-10-28T03:08:30;32.20;;;15.67;;
7213;SDS011;3648;50.614;13.830;2022-10-28T03:10:57;24.00;;;14.93;;
7213;SDS011;3648;50.614;13.830;2022-10-28T03:13:24;25.30;;;13.93;;
7213;SDS011;3648;50.614;13.830;2022-10-28T03:15:51;30.40;;;14.03;;
7213;SDS011;3648;50.614;13.830;2022-10-28T03:18:18;26.53;;;13.57;;
7213;SDS011;3648;50.614;13.830;2022-10-28T03:20:46;24.40;;;14.80;;
7213;SDS011;3648;50.614;13.830;2022-10-28T03:23:13;25.13;;;13.80;;
7213;SDS011;3648;50.614;13.830;2022-10-28T03:25:40;20.80;;;13.93;;
7213;SDS011;3648;50.614;13.830;2022-10-28T03:28:07;22.57;;;14.17;;
7213;SDS011;3648;50.614;13.830;2022-10-28T03:30:34;27.40;;;14.57;;
7213;SDS011;3648;50.614;13.830;2022-10-28T03:33:01;21.57;;;13.60;;
7213;SDS011;3648;50.614;13.830;2022-10-28T03:35:28;28.17;;;16.10;;
7213;SDS011;3648;50.614;13.830;2022-10-28T03:37:56;21.57;;;14.23;;
7213;SDS011;3648;50.614;13.830;2022-10-28T03:40:23;27.50;;;16.90;;
7213;SDS011;3648;50.614;13.830;2022-10-28T03:42:49;24.73;;;15.47;;
7213;SDS011;3648;50.614;13.830;2022-10-28T03:45:16;25.70;;;16.57;;
7213;SDS011;3648;50.614;13.830;2022-10-28T03:47:43;26.30;;;15.73;;
7213;SDS011;3648;50.614;13.830;2022-10-28T03:50:10;28.87;;;16.07;;
7213;SDS011;3648;50.614;13.830;2022-10-28T03:52:37;33.50;;;18.90;;
7213;SDS011;3648;50.614;13.830;2022-10-28T03:55:05;31.13;;;18.20;;
7213;SDS011;3648;50.614;13.830;2022-10-28T03:57:33;33.33;;;18.27;;
7213;SDS011;3648;50.614;13.830;2022-10-28T04:00:00;30.57;;;19.30;;
7213;SDS011;3648;50.614;13.830;2022-10-28T04:02:27;30.23;;;19.73;;
7213;SDS011;3648;50.614;13.830;2022-10-28T04:04:54;31.93;;;18.53;;
7213;SDS011;3648;50.614;13.830;2022-10-28T04:07:20;30.20;;;18.67;;
7213;SDS011;3648;50.614;13.830;2022-10-28T04:09:48;43.97;;;23.20;;
7213;SDS011;3648;50.614;13.830;2022-10-28T04:12:16;40.63;;;24.63;;
7213;SDS011;3648;50.614;13.830;2022-10-28T04:14:43;34.63;;;21.67;;
7213;SDS011;3648;50.614;13.830;2022-10-28T04:17:11;37.20;;;21.30;;
7213;SDS011;3648;50.614;13.830;2022-10-28T04:19:38;31.97;;;21.47;;
7213;SDS011;3648;50.614;13.830;2022-10-28T04:22:05;29.90;;;19.43;;
7213;SDS011;3648;50.614;13.830;2022-10-28T04:24:32;29.43;;;20.37;;
7213;SDS011;3648;50.614;13.830;2022-10-28T04:26:59;29.03;;;19.27;;
7213;SDS011;3648;50.614;13.830;2022-10-28T04:29:27;37.60;;;23.03;;
7213;SDS011;3648;50.614;13.830;2022-10-28T04:31:54;41.50;;;23.03;;
7213;SDS011;3648;50.614;13.830;2022-10-28T04:34:21;36.33;;;21.83;;
7213;SDS011;3648;50.614;13.830;2022-10-28T04:36:48;36.63;;;21.53;;
7213;SDS011;3648;50.614;13.830;2022-10-28T04:39:15;36.93;;;21.77;;
7213;SDS011;3648;50.614;13.830;2022-10-28T04:41:42;41.90;;;22.77;;
7213;SDS011;3648;50.614;13.830;2022-10-28T04:44:09;32.57;;;19.63;;
7213;SDS011;3648;50.614;13.830;2022-10-28T04:46:37;26.27;;;19.47;;
7213;SDS011;3648;50.614;13.830;2022-10-28T04:49:04;28.97;;;19.13;;
7213;SDS011;3648;50.614;13.830;2022-10-28T04:51:31;28.10;;;19.17;;
7213;SDS011;3648;50.614;13.830;2022-10-28T04:53:58;34.03;;;21.73;;
7213;SDS011;3648;50.614;13.830;2022-10-28T04:56:25;31.80;;;20.50;;
7213;SDS011;3648;50.614;13.830;2022-10-28T04:58:52;36.03;;;20.23;;
7213;SDS011;3648;50.614;13.830;2022-10-28T05:01:19;30.77;;;21.23;;
7213;SDS011;3648;50.614;13.830;2022-10-28T05:03:48;34.50;;;22.80;;
7213;SDS011;3648;50.614;13.830;2022-10-28T05:06:15;39.33;;;26.17;;
7213;SDS011;3648;50.614;13.830;2022-10-28T05:08:42;41.23;;;24.00;;
7213;SDS011;3648;50.614;13.830;2022-10-28T05:11:09;33.13;;;23.67;;
7213;SDS011;3648;50.614;13.830;2022-10-28T05:13:35;33.73;;;23.03;;
7213;SDS011;3648;50.614;13.830;2022-10-28T05:16:03;35.30;;;23.97;;
7213;SDS011;3648;50.614;13.830;2022-10-28T05:18:30;38.40;;;25.63;;
7213;SDS011;3648;50.614;13.830;2022-10-28T05:20:58;44.50;;;28.70;;
7213;SDS011;3648;50.614;13.830;2022-10-28T05:23:25;36.37;;;26.40;;
7213;SDS011;3648;50.614;13.830;2022-10-28T05:25:52;37.73;;;28.17;;
7213;SDS011;3648;50.614;13.830;2022-10-28T05:28:19;35.23;;;25.40;;
7213;SDS011;3648;50.614;13.830;2022-10-28T05:30:46;32.30;;;23.47;;
7213;SDS011;3648;50.614;13.830;2022-10-28T05:33:13;32.33;;;23.53;;
7213;SDS011;3648;50.614;13.830;2022-10-28T05:35:40;33.60;;;20.97;;
7213;SDS011;3648;50.614;13.830;2022-10-28T05:38:09;30.20;;;20.43;;
7213;SDS011;3648;50.614;13.830;2022-10-28T05:40:36;36.20;;;22.67;;
7213;SDS011;3648;50.614;13.830;2022-10-28T05:43:03;33.13;;;22.47;;
7213;SDS011;3648;50.614;13.830;2022-10-28T05:45:30;38.20;;;24.23;;
7213;SDS011;3648;50.614;13.830;2022-10-28T05:47:57;31.43;;;20.67;;
7213;SDS011;3648;50.614;13.830;2022-10-28T05:50:24;34.97;;;22.53;;
7213;SDS011;3648;50.614;13.830;2022-10-28T05:52:52;32.70;;;24.47;;
7213;SDS011;3648;50.614;13.830;2022-10-28T05:55:21;37.97;;;25.43;;
7213;SDS011;3648;50.614;13.830;2022-10-28T05:57:50;45.50;;;32.13;;
7213;SDS011;3648;50.614;13.830;2022-10-28T06:00:18;46.13;;;33.00;;
7213;SDS011;3648;50.614;13.830;2022-10-28T06:02:46;42.67;;;29.60;;
7213;SDS011;3648;50.614;13.830;2022-10-28T06:05:14;43.07;;;28.00;;
7213;SDS011;3648;50.614;13.830;2022-10-28T06:07:41;38.33;;;25.03;;
7213;SDS011;3648;50.614;13.830;2022-10-28T06:10:09;35.97;;;26.60;;
7213;SDS011;3648;50.614;13.830;2022-10-28T06:12:38;40.67;;;25.03;;
7213;SDS011;3648;50.614;13.830;2022-10-28T06:15:05;35.57;;;26.40;;
7213;SDS011;3648;50.614;13.830;2022-10-28T06:17:33;33.43;;;24.50;;
7213;SDS011;3648;50.614;13.830;2022-10-28T06:20:01;34.67;;;24.77;;
7213;SDS011;3648;50.614;13.830;2022-10-28T06:22:29;38.37;;;25.33;;
7213;SDS011;3648;50.614;13.830;2022-10-28T06:24:56;33.07;;;21.97;;
7213;SDS011;3648;50.614;13.830;2022-10-28T06:27:23;24.70;;;18.50;;
7213;SDS011;3648;50.614;13.830;2022-10-28T06:29:51;31.57;;;19.43;;
7213;SDS011;3648;50.614;13.830;2022-10-28T06:32:18;28.07;;;18.93;;
7213;SDS011;3648;50.614;13.830;2022-10-28T06:34:45;30.70;;;18.13;;
7213;SDS011;3648;50.614;13.830;2022-10-28T06:37:12;33.13;;;21.13;;
7213;SDS011;3648;50.614;13.830;2022-10-28T06:39:39;39.83;;;22.33;;
7213;SDS011;3648;50.614;13.830;2022-10-28T06:42:07;37.40;;;23.07;;
7213;SDS011;3648;50.614;13.830;2022-10-28T06:44:34;32.30;;;19.90;;
7213;SDS011;3648;50.614;13.830;2022-10-28T06:47:02;36.10;;;21.40;;
7213;SDS011;3648;50.614;13.830;2022-10-28T06:49:30;48.40;;;31.50;;
7213;SDS011;3648;50.614;13.830;2022-10-28T06:51:56;74.10;;;44.90;;
7213;SDS011;3648;50.614;13.830;2022-10-28T06:54:23;88.37;;;56.37;;
7213;SDS011;3648;50.614;13.830;2022-10-28T06:56:50;71.23;;;47.60;;
7213;SDS011;3648;50.614;13.830;2022-10-28T06:59:17;58.87;;;41.37;;
7213;SDS011;3648;50.614;13.830;2022-10-28T07:01:44;55.37;;;36.17;;
7213;SDS011;3648;50.614;13.830;2022-10-28T07:04:13;50.43;;;34.23;;
7213;SDS011;3648;50.614;13.830;2022-10-28T07:06:40;52.57;;;34.60;;
7213;SDS011;3648;50.614;13.830;2022-10-28T07:09:08;46.17;;;31.03;;
7213;SDS011;3648;50.614;13.830;2022-10-28T07:11:36;38.10;;;27.07;;
7213;SDS011;3648;50.614;13.830;2022-10-28T07:14:03;38.20;;;25.03;;
7213;SDS011;3648;50.614;13.830;2022-10-28T07:16:30;33.73;;;21.67;;
7213;SDS011;3648;50.614;13.830;2022-10-28T07:18:57;31.87;;;22.67;;
7213;SDS011;3648;50.614;13.830;2022-10-28T07:21:25;35.77;;;23.10;;
7213;SDS011;3648;50.614;13.830;2022-10-28T07:23:54;32.93;;;21.47;;
7213;SDS011;3648;50.614;13.830;2022-10-28T07:26:21;29.13;;;20.57;;
7213;SDS011;3648;50.614;13.830;2022-10-28T07:28:48;27.07;;;19.50;;
7213;SDS011;3648;50.614;13.830;2022-10-28T07:31:15;29.27;;;19.27;;
7213;SDS011;3648;50.614;13.830;2022-10-28T07:33:42;31.87;;;20.53;;
7213;SDS011;3648;50.614;13.830;2022-10-28T07:36:09;31.57;;;19.50;;
7213;SDS011;3648;50.614;13.830;2022-10-28T07:38:38;33.43;;;20.40;;
7213;SDS011;3648;50.614;13.830;2022-10-28T07:41:05;30.53;;;19.43;;
7213;SDS011;3648;50.614;13.830;2022-10-28T07:43:36;34.53;;;20.47;;
7213;SDS011;3648;50.614;13.830;2022-10-28T07:46:04;30.40;;;19.50;;
7213;SDS011;3648;50.614;13.830;2022-10-28T07:48:32;33.67;;;19.90;;
7213;SDS011;3648;50.614;13.830;2022-10-28T07:50:59;36.13;;;19.90;;
7213;SDS011;3648;50.614;13.830;2022-10-28T07:53:27;40.67;;;21.50;;
7213;SDS011;3648;50.614;13.830;2022-10-28T07:55:56;36.73;;;20.97;;
7213;SDS011;3648;50.614;13.830;2022-10-28T07:58:25;219.43;;;46.60;;
7213;SDS011;3648;50.614;13.830;2022-10-28T08:01:26;99.50;;;33.47;;
7213;SDS011;3648;50.614;13.830;2022-10-28T08:03:55;212.77;;;49.90;;
7213;SDS011;3648;50.614;13.830;2022-10-28T08:06:22;250.80;;;54.67;;
7213;SDS011;3648;50.614;13.830;2022-10-28T08:08:52;116.63;;;39.57;;
7213;SDS011;3648;50.614;13.830;2022-10-28T08:11:21;78.13;;;34.40;;
7213;SDS011;3648;50.614;13.830;2022-10-28T08:13:49;80.30;;;33.00;;
7213;SDS011;3648;50.614;13.830;2022-10-28T08:16:21;54.00;;;26.60;;
7213;SDS011;3648;50.614;13.830;2022-10-28T08:18:48;49.33;;;27.33;;
7213;SDS011;3648;50.614;13.830;2022-10-28T08:21:17;51.13;;;26.30;;
7213;SDS011;3648;50.614;13.830;2022-10-28T08:23:44;47.03;;;25.90;;
7213;SDS011;3648;50.614;13.830;2022-10-28T08:26:11;44.37;;;23.87;;
7213;SDS011;3648;50.614;13.830;2022-10-28T08:28:40;138.80;;;36.83;;
7213;SDS011;3648;50.614;13.830;2022-10-28T08:31:08;88.33;;;33.43;;
7213;SDS011;3648;50.614;13.830;2022-10-28T08:33:37;61.73;;;30.43;;
7213;SDS011;3648;50.614;13.830;2022-10-28T08:36:05;65.50;;;32.87;;
7213;SDS011;3648;50.614;13.830;2022-10-28T08:38:33;240.33;;;59.47;;
7213;SDS011;3648;50.614;13.830;2022-10-28T08:41:02;125.90;;;38.50;;
7213;SDS011;3648;50.614;13.830;2022-10-28T08:43:37;151.23;;;44.50;;
7213;SDS011;3648;50.614;13.830;2022-10-28T08:46:15;88.80;;;35.80;;
7213;SDS011;3648;50.614;13.830;2022-10-28T08:48:50;125.67;;;40.33;;
7213;SDS011;3648;50.614;13.830;2022-10-28T08:51:18;298.20;;;60.70;;
7213;SDS011;3648;50.614;13.830;2022-10-28T08:53:51;88.77;;;34.53;;
7213;SDS011;3648;50.614;13.830;2022-10-28T08:56:23;72.67;;;32.70;;
7213;SDS011;3648;50.614;13.830;2022-10-28T08:58:56;69.37;;;34.17;;
7213;SDS011;3648;50.614;13.830;2022-10-28T09:01:29;196.90;;;48.53;;
7213;SDS011;3648;50.614;13.830;2022-10-28T09:04:04;214.37;;;52.70;;
7213;SDS011;3648;50.614;13.830;2022-10-28T09:06:47;95.37;;;37.00;;
7213;SDS011;3648;50.614;13.830;2022-10-28T09:09:16;93.50;;;39.17;;
7213;SDS011;3648;50.614;13.830;2022-10-28T09:11:51;166.93;;;48.77;;
7213;SDS011;3648;50.614;13.830;2022-10-28T09:14:50;333.80;;;79.23;;
7213;SDS011;3648;50.614;13.830;2022-10-28T09:17:31;104.07;;;37.57;;
7213;SDS011;3648;50.614;13.830;2022-10-28T09:20:09;68.73;;;31.53;;
7213;SDS011;3648;50.614;13.830;2022-10-28T09:22:44;60.27;;;32.03;;
7213;SDS011;3648;50.614;13.830;2022-10-28T09:25:21;56.90;;;29.97;;
7213;SDS011;3648;50.614;13.830;2022-10-28T09:27:59;50.30;;;26.03;;
7213;SDS011;3648;50.614;13.830;2022-10-28T09:30:49;47.40;;;25.13;;
7213;SDS011;3648;50.614;13.830;2022-10-28T09:36:18;41.77;;;22.83;;
7213;SDS011;3648;50.614;13.830;2022-10-28T09:38:50;38.43;;;23.97;;
7213;SDS011;3648;50.614;13.830;2022-10-28T09:41:22;41.67;;;23.50;;
7213;SDS011;3648;50.614;13.830;2022-10-28T09:43:54;41.03;;;24.07;;
7213;SDS011;3648;50.614;13.830;2022-10-28T09:46:26;35.63;;;23.87;;
7213;SDS011;3648;50.614;13.830;2022-10-28T09:48:56;43.33;;;26.87;;
7213;SDS011;3648;50.614;13.830;2022-10-28T09:51:28;47.10;;;26.37;;
7213;SDS011;3648;50.614;13.830;2022-10-28T09:54:00;49.47;;;29.30;;
7213;SDS011;3648;50.614;13.830;2022-10-28T09:56:27;52.70;;;29.27;;
7213;SDS011;3648;50.614;13.830;2022-10-28T09:58:56;50.37;;;27.90;;
7213;SDS011;3648;50.614;13.830;2022-10-28T10:01:29;100.37;;;31.53;;
7213;SDS011;3648;50.614;13.830;2022-10-28T10:03:59;56.93;;;27.23;;
7213;SDS011;3648;50.614;13.830;2022-10-28T10:06:27;56.93;;;30.43;;
7213;SDS011;3648;50.614;13.830;2022-10-28T10:08:57;50.47;;;33.13;;
7213;SDS011;3648;50.614;13.830;2022-10-28T10:11:27;312.67;;;71.60;;
7213;SDS011;3648;50.614;13.830;2022-10-28T10:14:06;118.47;;;41.20;;
7213;SDS011;3648;50.614;13.830;2022-10-28T10:16:38;143.03;;;44.93;;
7213;SDS011;3648;50.614;13.830;2022-10-28T10:19:10;125.67;;;41.77;;
7213;SDS011;3648;50.614;13.830;2022-10-28T10:21:41;321.10;;;78.23;;
7213;SDS011;3648;50.614;13.830;2022-10-28T10:27:11;74.43;;;35.57;;
7213;SDS011;3648;50.614;13.830;2022-10-28T10:29:42;258.63;;;60.80;;
7213;SDS011;3648;50.614;13.830;2022-10-28T10:32:15;351.17;;;80.37;;
7213;SDS011;3648;50.614;13.830;2022-10-28T10:34:45;242.03;;;58.70;;
7213;SDS011;3648;50.614;13.830;2022-10-28T10:37:22;115.03;;;39.83;;
7213;SDS011;3648;50.614;13.830;2022-10-28T10:40:03;94.63;;;36.87;;
7213;SDS011;3648;50.614;13.830;2022-10-28T10:42:39;316.10;;;72.83;;
7213;SDS011;3648;50.614;13.830;2022-10-28T10:45:13;308.27;;;67.47;;
7213;SDS011;3648;50.614;13.830;2022-10-28T10:48:01;522.70;;;113.67;;
7213;SDS011;3648;50.614;13.830;2022-10-28T10:50:35;317.73;;;78.10;;
7213;SDS011;3648;50.614;13.830;2022-10-28T10:53:03;664.93;;;143.87;;
7213;SDS011;3648;50.614;13.830;2022-10-28T10:55:34;134.67;;;44.87;;
7213;SDS011;3648;50.614;13.830;2022-10-28T10:58:04;106.37;;;39.83;;
7213;SDS011;3648;50.614;13.830;2022-10-28T11:00:34;59.20;;;29.37;;
7213;SDS011;3648;50.614;13.830;2022-10-28T11:03:05;50.93;;;27.23;;
7213;SDS011;3648;50.614;13.830;2022-10-28T11:05:46;186.50;;;43.23;;
7213;SDS011;3648;50.614;13.830;2022-10-28T11:08:18;56.50;;;27.20;;
7213;SDS011;3648;50.614;13.830;2022-10-28T11:11:13;47.17;;;24.40;;
7213;SDS011;3648;50.614;13.830;2022-10-28T11:13:45;49.30;;;24.63;;
7213;SDS011;3648;50.614;13.830;2022-10-28T11:16:17;36.70;;;23.67;;
7213;SDS011;3648;50.614;13.830;2022-10-28T11:18:48;33.83;;;21.57;;
7213;SDS011;3648;50.614;13.830;2022-10-28T11:21:21;31.87;;;21.23;;
7213;SDS011;3648;50.614;13.830;2022-10-28T11:24:11;316.80;;;69.63;;
7213;SDS011;3648;50.614;13.830;2022-10-28T11:27:03;79.77;;;33.90;;
7213;SDS011;3648;50.614;13.830;2022-10-28T11:29:40;122.60;;;39.70;;
7213;SDS011;3648;50.614;13.830;2022-10-28T11:32:18;361.53;;;79.30;;
7213;SDS011;3648;50.614;13.830;2022-10-28T11:35:16;323.43;;;74.60;;
7213;SDS011;3648;50.614;13.830;2022-10-28T11:38:01;258.97;;;62.37;;
7213;SDS011;3648;50.614;13.830;2022-10-28T11:40:38;294.73;;;66.83;;
7213;SDS011;3648;50.614;13.830;2022-10-28T11:43:18;138.83;;;43.37;;
7213;SDS011;3648;50.614;13.830;2022-10-28T11:45:56;163.87;;;47.87;;
7213;SDS011;3648;50.614;13.830;2022-10-28T11:48:34;163.93;;;46.23;;
7213;SDS011;3648;50.614;13.830;2022-10-28T11:51:24;226.57;;;55.53;;
7213;SDS011;3648;50.614;13.830;2022-10-28T11:54:13;372.77;;;83.73;;
7213;SDS011;3648;50.614;13.830;2022-10-28T11:56:53;134.37;;;46.73;;
7213;SDS011;3648;50.614;13.830;2022-10-28T11:59:29;177.67;;;55.40;;
7213;SDS011;3648;50.614;13.830;2022-10-28T12:02:14;100.67;;;42.10;;
7213;SDS011;3648;50.614;13.830;2022-10-28T12:04:53;74.53;;;36.17;;
7213;SDS011;3648;50.614;13.830;2022-10-28T12:07:39;61.40;;;35.07;;
7213;SDS011;3648;50.614;13.830;2022-10-28T12:10:27;93.43;;;40.50;;
7213;SDS011;3648;50.614;13.830;2022-10-28T12:13:04;133.47;;;44.80;;
7213;SDS011;3648;50.614;13.830;2022-10-28T12:15:40;220.07;;;56.70;;
7213;SDS011;3648;50.614;13.830;2022-10-28T12:18:17;210.77;;;54.20;;
7213;SDS011;3648;50.614;13.830;2022-10-28T12:20:52;73.03;;;35.03;;
7213;SDS011;3648;50.614;13.830;2022-10-28T12:23:26;58.90;;;31.73;;
7213;SDS011;3648;50.614;13.830;2022-10-28T12:25:56;51.80;;;30.63;;
7213;SDS011;3648;50.614;13.830;2022-10-28T12:28:26;48.47;;;29.77;;
7213;SDS011;3648;50.614;13.830;2022-10-28T12:30:58;43.63;;;27.87;;
7213;SDS011;3648;50.614;13.830;2022-10-28T12:33:28;47.10;;;28.07;;
7213;SDS011;3648;50.614;13.830;2022-10-28T12:36:12;48.97;;;28.33;;
7213;SDS011;3648;50.614;13.830;2022-10-28T12:38:48;44.43;;;28.50;;
7213;SDS011;3648;50.614;13.830;2022-10-28T12:41:22;47.53;;;28.13;;
7213;SDS011;3648;50.614;13.830;2022-10-28T12:43:53;40.10;;;26.50;;
7213;SDS011;3648;50.614;13.830;2022-10-28T12:46:27;41.67;;;25.27;;
7213;SDS011;3648;50.614;13.830;2022-10-28T12:49:04;45.60;;;27.70;;
7213;SDS011;3648;50.614;13.830;2022-10-28T12:51:38;45.83;;;27.07;;
7213;SDS011;3648;50.614;13.830;2022-10-28T12:54:12;42.83;;;28.00;;
7213;SDS011;3648;50.614;13.830;2022-10-28T12:56:47;46.10;;;28.63;;
7213;SDS011;3648;50.614;13.830;2022-10-28T12:59:19;49.47;;;28.67;;
7213;SDS011;3648;50.614;13.830;2022-10-28T13:01:55;46.70;;;29.83;;
7213;SDS011;3648;50.614;13.830;2022-10-28T13:04:25;48.10;;;31.73;;
7213;SDS011;3648;50.614;13.830;2022-10-28T13:07:06;47.40;;;29.43;;
7213;SDS011;3648;50.614;13.830;2022-10-28T13:09:51;48.57;;;30.80;;
7213;SDS011;3648;50.614;13.830;2022-10-28T13:12:33;50.70;;;29.50;;
7213;SDS011;3648;50.614;13.830;2022-10-28T13:15:18;47.87;;;28.23;;
7213;SDS011;3648;50.614;13.830;2022-10-28T13:18:11;45.03;;;28.60;;
7213;SDS011;3648;50.614;13.830;2022-10-28T13:20:52;48.27;;;30.73;;
7213;SDS011;3648;50.614;13.830;2022-10-28T13:23:32;47.20;;;29.27;;
7213;SDS011;3648;50.614;13.830;2022-10-28T13:26:15;50.07;;;30.67;;
7213;SDS011;3648;50.614;13.830;2022-10-28T13:28:48;48.37;;;30.40;;
7213;SDS011;3648;50.614;13.830;2022-10-28T13:31:18;54.70;;;33.53;;
7213;SDS011;3648;50.614;13.830;2022-10-28T13:33:46;53.57;;;31.60;;
7213;SDS011;3648;50.614;13.830;2022-10-28T13:36:18;59.47;;;31.87;;
7213;SDS011;3648;50.614;13.830;2022-10-28T13:38:51;47.30;;;29.00;;
7213;SDS011;3648;50.614;13.830;2022-10-28T13:41:28;51.73;;;31.90;;
7213;SDS011;3648;50.614;13.830;2022-10-28T13:43:59;59.23;;;33.53;;
7213;SDS011;3648;50.614;13.830;2022-10-28T13:47:02;57.93;;;33.90;;
7213;SDS011;3648;50.614;13.830;2022-10-28T13:52:45;60.20;;;34.00;;
7213;SDS011;3648;50.614;13.830;2022-10-28T13:55:20;63.67;;;34.73;;
7213;SDS011;3648;50.614;13.830;2022-10-28T13:57:56;56.30;;;33.33;;
7213;SDS011;3648;50.614;13.830;2022-10-28T14:00:32;62.33;;;35.60;;
7213;SDS011;3648;50.614;13.830;2022-10-28T14:03:02;62.53;;;34.70;;
7213;SDS011;3648;50.614;13.830;2022-10-28T14:05:50;63.33;;;33.43;;
7213;SDS011;3648;50.614;13.830;2022-10-28T14:08:24;67.10;;;35.03;;
7213;SDS011;3648;50.614;13.830;2022-10-28T14:10:57;65.37;;;35.63;;
7213;SDS011;3648;50.614;13.830;2022-10-28T14:13:31;66.33;;;34.83;;
7213;SDS011;3648;50.614;13.830;2022-10-28T14:16:21;65.87;;;33.27;;
7213;SDS011;3648;50.614;13.830;2022-10-28T14:18:53;67.40;;;35.00;;
7213;SDS011;3648;50.614;13.830;2022-10-28T14:21:24;67.07;;;33.63;;
7213;SDS011;3648;50.614;13.830;2022-10-28T14:24:07;61.83;;;33.80;;
7213;SDS011;3648;50.614;13.830;2022-10-28T14:32:57;63.50;;;33.70;;
7213;SDS011;3648;50.614;13.830;2022-10-28T14:35:37;66.13;;;34.00;;
7213;SDS011;3648;50.614;13.830;2022-10-28T14:38:18;52.80;;;31.17;;
7213;SDS011;3648;50.614;13.830;2022-10-28T14:41:22;59.47;;;31.27;;
7213;SDS011;3648;50.614;13.830;2022-10-28T14:43:59;59.40;;;30.07;;
7213;SDS011;3648;50.614;13.830;2022-10-28T14:46:40;59.50;;;31.07;;
7213;SDS011;3648;50.614;13.830;2022-10-28T14:49:19;54.73;;;30.13;;
7213;SDS011;3648;50.614;13.830;2022-10-28T14:51:53;51.60;;;29.13;;
7213;SDS011;3648;50.614;13.830;2022-10-28T14:54:27;56.77;;;28.80;;
7213;SDS011;3648;50.614;13.830;2022-10-28T14:57:02;50.57;;;27.53;;
7213;SDS011;3648;50.614;13.830;2022-10-28T14:59:31;61.77;;;29.47;;
7213;SDS011;3648;50.614;13.830;2022-10-28T15:02:09;51.73;;;28.20;;
7213;SDS011;3648;50.614;13.830;2022-10-28T15:04:39;52.13;;;28.77;;
7213;SDS011;3648;50.614;13.830;2022-10-28T15:07:10;52.63;;;27.90;;
7213;SDS011;3648;50.614;13.830;2022-10-28T15:09:40;51.53;;;28.67;;
7213;SDS011;3648;50.614;13.830;2022-10-28T15:12:09;51.37;;;27.97;;
7213;SDS011;3648;50.614;13.830;2022-10-28T15:14:39;48.43;;;27.23;;
7213;SDS011;3648;50.614;13.830;2022-10-28T15:17:15;43.27;;;26.13;;
7213;SDS011;3648;50.614;13.830;2022-10-28T15:19:44;51.23;;;27.77;;
7213;SDS011;3648;50.614;13.830;2022-10-28T15:22:14;41.63;;;25.30;;
7213;SDS011;3648;50.614;13.830;2022-10-28T15:24:57;58.30;;;31.33;;